Latest Coastal Weather Observations for Avalon

IDV60701

Issued at 12:21 am EST Friday 29 July 2016 (issued every 10 minutes, with the page automatically refreshed every 10 minutes)

About coastal observations | Map of coastal stations | Coastal observations for VIC | Marine services | Other Formats
Station Details ID: 087113 Name: AVALON AIRPORT Lat: -38.03 Lon: 144.48 Height: 10.6 m
Data from the previous 72 hours. | See also: Recent months at Avalon
Date/Time
EST
Temp
°C
Wind Pressure Rain since
9am
mm
Weather Cloud Vis
km
Sea
Height
m
Swell
Dir  Spd
kts
Gust
kts
hPa Trend Height
m
Period
s
Dir
29/12:00am 11.3 N 9 11 1021.5 - 0.0 - Cloudy 10 - - - -
 
Date/Time
EST
Temp
°C
Wind Pressure Rain since
9am
mm
Weather Cloud Vis
km
Sea
Height
m
Swell
Dir  Spd
kts
Gust
kts
hPa Trend Height
m
Period
s
Dir
28/11:30pm 11.3 N 10 11 1021.5 - 0.0 - Cloudy 10 - - - -
28/11:00pm 11.1 N 11 13 1021.5 - 0.0 - Cloudy 10 - - - -
28/10:30pm 12.6 NNW 11 14 1022.0 - 0.0 - Cloudy 10 - - - -
28/10:00pm 12.9 NNW 13 17 1022.2 - 0.0 - Cloudy 10 - - - -
28/09:30pm 12.2 NNW 12 16 1022.1 - 0.0 - Cloudy 10 - - - -
28/09:00pm 12.1 N 12 15 1022.3 - 0.0 - Cloudy 10 - - - -
28/08:30pm 12.0 NNW 13 17 1022.3 - 0.0 - Partly cloudy 10 - - - -
28/08:00pm 13.5 NW 15 20 1022.2 - 0.0 - Cloudy 10 - - - -
28/07:30pm 12.6 NNW 10 13 1022.2 - 0.0 - Partly cloudy 10 - - - -
28/07:00pm 12.9 NNW 10 12 1022.1 - 0.0 - Cloudy 10 - - - -
28/06:30pm 13.4 NW 9 15 1022.2 - 0.0 - Cloudy 10 - - - -
28/06:00pm 12.9 NW 6 9 1022.0 - 0.0 - Cloudy 10 - - - -
28/05:30pm 13.2 NW 8 10 1021.8 - 0.0 - Cloudy 10 - - - -
28/05:00pm 13.5 WNW 11 15 1021.7 - 0.0 - Partly cloudy 10 - - - -
28/04:30pm 14.2 WNW 19 24 1021.6 - 0.0 - - 10 - - - -
28/04:00pm 14.5 WNW 20 25 1021.6 - 0.0 - - 10 - - - -
28/03:33pm 14.7 WNW 19 29 1021.5 - 0.0 - Partly cloudy 10 - - - -
28/03:30pm 14.6 WNW 18 25 1021.5 - 0.0 - Partly cloudy 10 - - - -
28/03:00pm 14.8 WNW 21 30 1021.4 - 0.0 - Cloudy 10 - - - -
28/02:56pm 15.3 WNW 19 30 1021.4 - 0.0 - Partly cloudy 10 - - - -
28/02:30pm 14.8 WNW 17 25 1021.7 - 0.0 - Cloudy 10 - - - -
28/02:00pm 14.4 WNW 19 26 1021.7 - 0.0 - Partly cloudy 10 - - - -
28/01:34pm 14.2 WNW 17 27 1021.7 - 0.0 - Partly cloudy 10 - - - -
28/01:30pm 14.9 WNW 16 25 1021.8 - 0.0 - Partly cloudy 10 - - - -
28/01:00pm 13.8 WNW 16 24 1022.3 - 0.0 - Partly cloudy 10 - - - -
28/12:30pm 13.6 WNW 17 24 1022.6 - 0.0 - Cloudy 10 - - - -
28/12:00pm 13.5 WNW 21 30 1022.6 - 0.0 - Cloudy 10 - - - -
28/11:31am 14.0 NW 20 30 1022.8 - 0.0 - Partly cloudy 10 - - - -
28/11:30am 14.0 WNW 21 30 1022.8 - 0.0 - Partly cloudy 10 - - - -
28/11:00am 13.3 WNW 21 27 1023.1 - 0.0 - Cloudy 10 - - - -
28/10:30am 13.7 WNW 17 24 1023.0 - 0.0 - Partly cloudy 10 - - - -
28/10:00am 12.9 WNW 19 29 1022.9 - 0.0 - Cloudy 10 - - - -
28/09:59am 12.9 WNW 18 29 1022.9 - 0.0 - Cloudy 10 - - - -
28/09:30am 12.3 NW 12 17 1023.0 - 0.0 - Cloudy 10 - - - -
28/09:00am 11.5 NW 12 17 1023.0 - 0.0 - Cloudy 10 - - - -
28/08:30am 10.7 NW 14 21 1022.8 - 0.0 - Partly cloudy 10 - - - -
28/08:00am 10.2 NW 13 17 1022.8 - 0.0 - - 10 - - - -
28/07:30am 9.9 NW 13 22 1022.4 - 0.0 - Partly cloudy 10 - - - -
28/07:00am 9.9 WNW 14 18 1022.4 - 0.0 - Partly cloudy 10 - - - -
28/06:30am 9.8 NW 14 19 1022.2 - 0.0 - Partly cloudy 10 - - - -
28/06:00am 9.8 WNW 14 17 1022.0 - 0.0 - Cloudy 10 - - - -
28/05:30am 9.4 WNW 14 19 1022.0 - 0.0 - Partly cloudy 10 - - - -
28/05:00am 9.5 WNW 14 20 1021.8 - 0.0 - Partly cloudy 10 - - - -
28/04:30am 9.6 NW 13 17 1021.5 - 0.0 - Partly cloudy 10 - - - -
28/04:00am 9.8 WNW 13 18 1021.5 - 0.0 - Cloudy 10 - - - -
28/03:30am 9.5 WNW 14 19 1021.7 - 0.0 - Cloudy 10 - - - -
28/03:00am 9.6 WNW 14 20 1021.6 - 0.0 - Partly cloudy 10 - - - -
28/02:30am 9.6 WNW 18 23 1021.6 - 0.0 - - 10 - - - -
28/02:00am 9.7 WNW 19 27 1021.3 - 0.0 - - 10 - - - -
28/01:30am 9.6 WNW 20 25 1020.9 - 0.0 - - 10 - - - -
28/01:00am 9.3 WNW 14 22 1021.1 - 0.0 - - 10 - - - -
28/12:30am 9.3 WNW 16 23 1021.5 - 0.0 - Partly cloudy 10 - - - -
28/12:00am 9.4 WNW 14 19 1021.5 - 0.0 - - 10 - - - -
 
Date/Time
EST
Temp
°C
Wind Pressure Rain since
9am
mm
Weather Cloud Vis
km
Sea
Height
m
Swell
Dir  Spd
kts
Gust
kts
hPa Trend Height
m
Period
s
Dir
27/11:30pm 9.0 WNW 12 17 1021.4 - 0.0 - Partly cloudy 10 - - - -
27/11:00pm 9.0 WNW 15 21 1021.2 - 0.0 - - 10 - - - -
27/10:30pm 8.6 NW 11 16 1021.1 - 0.0 - - 10 - - - -
27/10:00pm 8.7 NW 13 17 1021.2 - 0.0 - Partly cloudy 10 - - - -
27/09:30pm 8.7 WNW 15 20 1021.4 - 0.0 - - 10 - - - -
27/09:00pm 9.1 WNW 16 20 1021.8 - 0.0 - Cloudy 10 - - - -
27/08:30pm 9.0 WNW 13 17 1021.8 - 0.0 - Partly cloudy 10 - - - -
27/08:00pm 9.0 WNW 13 16 1021.3 - 0.0 - Partly cloudy 10 - - - -
27/07:30pm 9.3 WNW 13 17 1021.2 - 0.0 - Partly cloudy 10 - - - -
27/07:00pm 9.5 W 13 17 1020.8 - 0.0 - Cloudy 10 - - - -
27/06:30pm 8.7 WNW 10 13 1020.1 - 0.0 - Partly cloudy 10 - - - -
27/06:00pm 8.8 WNW 12 15 1019.3 - 0.0 Drizzle Mostly clear 10 - - - -
27/05:30pm 9.9 W 15 20 1019.0 - 0.0 - Partly cloudy 10 - - - -
27/05:00pm 10.1 W 13 19 1018.9 - 0.0 - Partly cloudy 10 - - - -
27/04:30pm 10.8 W 10 16 1018.7 - 0.0 - Partly cloudy 10 - - - -
27/04:00pm 10.5 WNW 14 18 1018.5 - 0.0 - Partly cloudy 10 - - - -
27/03:30pm 10.9 W 16 22 1018.0 - 0.0 - Partly cloudy 10 - - - -
27/03:00pm 11.0 W 16 23 1017.5 - 0.0 - Cloudy 10 - - - -
27/02:30pm 12.0 W 16 21 1017.1 - 0.0 - Partly cloudy 10 - - - -
27/02:00pm 11.2 W 14 21 1016.7 - 0.0 - Partly cloudy 10 - - - -
27/01:30pm 12.1 W 19 26 1016.5 - 0.0 - Partly cloudy 10 - - - -
27/01:00pm 11.3 W 12 19 1016.4 - 0.0 - Partly cloudy 10 - - - -
27/12:30pm 11.3 WSW 17 22 1016.3 - 0.0 - Partly cloudy 10 - - - -
27/12:00pm 11.6 WSW 15 22 1016.1 - 0.0 - Partly cloudy 10 - - - -
27/11:30am 11.7 W 16 21 1015.6 - 0.0 - Partly cloudy 10 - - - -
27/11:00am 11.4 WSW 17 22 1015.4 - 0.0 - Partly cloudy 10 - - - -
27/10:30am 11.0 WSW 16 22 1014.9 - 0.0 - Partly cloudy 10 - - - -
27/10:00am 10.5 WSW 12 17 1014.5 - 0.0 - Partly cloudy 10 - - - -
27/09:30am 10.3 WSW 11 15 1014.0 - 0.0 - Partly cloudy 10 - - - -
27/09:00am 9.7 W 8 12 1013.3 - 0.0 - Mostly cloudy 10 - - - -
27/08:30am 9.6 WSW 10 13 1012.4 - 0.0 - Partly cloudy 10 - - - -
27/08:00am 9.4 W 11 15 1011.5 - 0.0 - Partly cloudy 10 - - - -
27/07:30am 9.3 W 13 19 1010.6 - 0.0 - Partly cloudy 10 - - - -
27/07:00am 9.1 W 13 17 1009.4 - 0.0 - Partly cloudy 10 - - - -
27/06:30am 8.7 W 15 19 1008.5 - 0.0 - Partly cloudy 10 - - - -
27/06:00am 9.5 WNW 14 17 1007.8 - 0.0 - Mostly cloudy 10 - - - -
27/05:30am 9.1 WNW 13 17 1007.3 - 0.0 - Partly cloudy 10 - - - -
27/05:00am 9.1 WNW 14 18 1006.7 - 0.0 - Partly cloudy 10 - - - -
27/04:30am 9.4 WNW 13 17 1006.4 - 0.0 - Cloudy 10 - - - -
27/04:00am 9.2 NW 12 17 1005.7 - 0.0 - Cloudy 10 - - - -
27/03:30am 8.6 NNW 8 13 1005.6 - 0.0 - Cloudy 10 - - - -
27/03:00am 8.5 NNW 8 14 1005.4 - 0.0 - Cloudy 10 - - - -
27/02:30am 8.5 NNW 9 11 1005.2 - 0.0 - Cloudy 10 - - - -
27/02:00am 8.4 NNW 8 9 1005.3 - 0.0 - Partly cloudy 10 - - - -
27/01:30am 8.6 NNW 11 15 1004.9 - 0.0 - Partly cloudy 10 - - - -
27/01:00am 9.3 NNW 12 18 1004.7 - 0.0 - Partly cloudy 10 - - - -
27/12:30am 9.5 NNW 10 15 1005.1 - 0.0 - Cloudy 10 - - - -
27/12:00am 9.2 N 11 16 1005.0 - 0.0 - Cloudy 10 - - - -
 
Date/Time
EST
Temp
°C
Wind Pressure Rain since
9am
mm
Weather Cloud Vis
km
Sea
Height
m
Swell
Dir  Spd
kts
Gust
kts
hPa Trend Height
m
Period
s
Dir
26/11:30pm 9.8 N 14 23 1005.3 - 0.0 - Partly cloudy 10 - - - -
26/11:09pm 10.1 N 15 25 1005.1 - 0.0 - Cloudy 10 - - - -
26/11:00pm 9.6 N 12 16 1005.1 - 0.0 - Cloudy 10 - - - -
26/10:30pm 9.8 N 15 23 1005.1 - 0.0 - Partly cloudy 10 - - - -
26/10:12pm 9.6 N 16 26 1005.3 - 0.0 - Cloudy 10 - - - -
26/10:00pm 9.6 N 16 21 1005.2 - 0.0 - Cloudy 10 - - - -
26/09:30pm 9.2 N 12 18 1005.7 - 0.0 - Partly cloudy 10 - - - -
26/09:00pm 9.4 N 15 19 1005.8 - 0.0 - Cloudy 10 - - - -
26/08:30pm 9.4 N 14 20 1006.2 - 0.0 - Partly cloudy 10 - - - -
26/08:00pm 9.0 N 13 19 1006.5 - 0.0 - Partly cloudy 10 - - - -
26/07:30pm 9.1 N 13 18 1006.7 - 0.0 - Partly cloudy 10 - - - -
26/07:00pm 8.9 N 12 15 1006.8 - 0.0 - Partly cloudy 10 - - - -
26/06:30pm 8.9 N 13 19 1006.9 - 0.0 - Partly cloudy 10 - - - -
26/06:00pm 8.5 N 12 15 1007.1 - 0.0 - Cloudy 10 - - - -
26/05:30pm 9.1 N 13 17 1007.6 - 0.0 - Partly cloudy 10 - - - -
26/05:00pm 9.7 N 15 21 1007.7 - 0.0 - Cloudy 10 - - - -
26/04:30pm 9.8 N 15 20 1007.7 - 0.0 - Cloudy 10 - - - -
26/04:00pm 10.0 NNW 17 24 1008.1 - 0.0 - Cloudy 10 - - - -
26/03:30pm 10.2 NNW 18 23 1008.5 - 0.0 - Partly cloudy 10 - - - -
26/03:00pm 10.0 NNW 15 21 1008.9 - 0.0 - Cloudy 10 - - - -
26/02:30pm 9.9 NNW 15 21 1009.4 - 0.0 - Partly cloudy 10 - - - -
26/02:00pm 9.6 NNW 17 20 1009.9 - 0.0 - Cloudy 10 - - - -
26/01:30pm 9.5 NNW 16 22 1010.3 - 0.0 - Partly cloudy 10 - - - -
26/01:00pm 9.7 NNW 16 20 1010.6 - 0.0 - - 10 - - - -
26/12:30pm 9.7 NNW 19 25 1011.2 - 0.0 - - 10 - - - -
26/12:00pm 9.2 NNW 19 24 1011.8 - 0.0 - Cloudy 10 - - - -
26/11:30am 9.2 NNW 18 24 1012.1 - 0.0 - Partly cloudy 10 - - - -
26/11:00am 9.1 NNW 16 21 1012.0 - 0.0 - Partly cloudy 10 - - - -
26/10:30am 8.8 NNW 17 22 1012.2 - 0.0 - Cloudy 10 - - - -
26/10:00am 8.3 NNW 14 19 1012.1 - 0.0 - Partly cloudy 10 - - - -
26/09:30am 8.0 NNW 13 17 1012.0 - 0.0 - Partly cloudy 10 - - - -
26/09:00am 7.2 NNW 13 15 1012.0 - 4.2 - - 10 - - - -
26/08:30am 6.9 NNW 13 16 1012.0 - 4.2 - Partly cloudy 10 - - - -
26/08:00am 4.9 N 11 13 1011.7 - 4.2 - Partly cloudy 10 - - - -
26/07:30am 4.9 NNE 7 10 1011.7 - 4.2 - - 10 - - - -
26/07:00am 5.9 WNW 10 12 1011.0 - 4.2 - Partly cloudy 10 - - - -
26/06:30am 6.7 WNW 10 13 1010.8 - 4.2 - Partly cloudy 10 - - - -
26/06:00am 6.9 WNW 15 20 1010.3 - 4.2 - Partly cloudy 10 - - - -
26/05:30am 6.7 WNW 13 17 1009.7 - 4.2 - Partly cloudy 10 - - - -
26/05:00am 6.7 WNW 15 21 1009.4 - 4.2 - - 10 - - - -
26/04:30am 6.9 WNW 16 26 1009.0 - 4.2 - Partly cloudy 10 - - - -
26/04:24am 6.9 WNW 15 26 1008.9 - 4.2 - Partly cloudy 10 - - - -
26/04:00am 7.0 WNW 16 20 1008.9 - 4.2 - Partly cloudy 10 - - - -
26/03:30am 7.1 WNW 18 23 1008.6 - 4.2 - - 10 - - - -
26/03:07am 7.1 WNW 19 29 1008.5 - 4.2 - Partly cloudy 10 - - - -
26/03:00am 7.1 WNW 20 25 1008.5 - 4.2 - Mostly clear 10 - - - -
26/02:30am 7.4 WNW 19 25 1008.3 - 4.2 - - 10 - - - -
26/02:00am 7.5 WNW 22 29 1008.1 - 4.2 - Partly cloudy 10 - - - -
26/01:39am 7.6 WNW 25 35 1008.1 - 4.2 - Partly cloudy 10 - - - -
26/01:30am 7.7 WNW 21 29 1008.1 - 4.2 - Partly cloudy 10 - - - -
26/01:10am 7.7 WNW 17 28 1008.1 - 4.2 - Partly cloudy 10 - - - -
26/01:00am 7.6 WNW 18 23 1007.8 - 4.2 - Partly cloudy 10 - - - -
26/12:30am 7.8 WNW 19 26 1007.6 - 4.2 - Partly cloudy 10 - - - -

Other Formats:

Comma delimited format used in spreadsheet applications
http://www.bom.gov.au/fwo/IDV60701/IDV60701.94854.axf

JavaScript Object Notation format (JSON) in row-major order
http://www.bom.gov.au/fwo/IDV60701/IDV60701.94854.json